sensor_id;sensor_type;location;lat;lon;timestamp;temperature;humidity
45535;DHT22;35892;48.798;9.698;2022-12-29T00:01:15;3.40;99.90
45535;DHT22;35892;48.798;9.698;2022-12-29T00:03:42;3.40;99.90
45535;DHT22;35892;48.798;9.698;2022-12-29T00:06:09;3.50;99.90
45535;DHT22;35892;48.798;9.698;2022-12-29T00:08:40;3.60;99.90
45535;DHT22;35892;48.798;9.698;2022-12-29T00:11:16;3.60;99.90
45535;DHT22;35892;48.798;9.698;2022-12-29T00:13:43;3.70;99.90
45535;DHT22;35892;48.798;9.698;2022-12-29T00:16:32;3.70;99.90
45535;DHT22;35892;48.798;9.698;2022-12-29T00:19:03;3.70;99.90
45535;DHT22;35892;48.798;9.698;2022-12-29T00:21:33;3.80;99.90
45535;DHT22;35892;48.798;9.698;2022-12-29T00:24:20;3.80;99.90
45535;DHT22;35892;48.798;9.698;2022-12-29T00:29:43;3.90;99.90
45535;DHT22;35892;48.798;9.698;2022-12-29T00:32:29;3.90;99.90
45535;DHT22;35892;48.798;9.698;2022-12-29T00:35:38;4.00;99.90
45535;DHT22;35892;48.798;9.698;2022-12-29T00:38:10;4.00;99.90
45535;DHT22;35892;48.798;9.698;2022-12-29T00:40:57;4.00;99.90
45535;DHT22;35892;48.798;9.698;2022-12-29T00:43:45;4.10;99.90
45535;DHT22;35892;48.798;9.698;2022-12-29T00:46:34;4.10;99.90
45535;DHT22;35892;48.798;9.698;2022-12-29T00:49:01;4.20;99.90
45535;DHT22;35892;48.798;9.698;2022-12-29T00:51:47;4.20;99.90
45535;DHT22;35892;48.798;9.698;2022-12-29T00:54:16;4.20;99.90
45535;DHT22;35892;48.798;9.698;2022-12-29T00:56:46;4.20;99.90
45535;DHT22;35892;48.798;9.698;2022-12-29T00:59:16;4.20;99.90
45535;DHT22;35892;48.798;9.698;2022-12-29T01:01:44;4.20;99.90
45535;DHT22;35892;48.798;9.698;2022-12-29T01:04:13;4.20;99.90
45535;DHT22;35892;48.798;9.698;2022-12-29T01:06:43;4.20;99.90
45535;DHT22;35892;48.798;9.698;2022-12-29T01:09:10;4.20;99.90
45535;DHT22;35892;48.798;9.698;2022-12-29T01:11:56;4.30;99.90
45535;DHT22;35892;48.798;9.698;2022-12-29T01:14:23;4.30;99.90
45535;DHT22;35892;48.798;9.698;2022-12-29T01:16:50;4.30;99.90
45535;DHT22;35892;48.798;9.698;2022-12-29T01:19:18;4.40;99.90
45535;DHT22;35892;48.798;9.698;2022-12-29T01:21:46;4.30;99.90
45535;DHT22;35892;48.798;9.698;2022-12-29T01:24:16;4.40;99.90
45535;DHT22;35892;48.798;9.698;2022-12-29T01:26:43;4.40;99.90
45535;DHT22;35892;48.798;9.698;2022-12-29T01:29:10;4.40;99.90
45535;DHT22;35892;48.798;9.698;2022-12-29T01:31:40;4.40;99.90
45535;DHT22;35892;48.798;9.698;2022-12-29T01:34:10;4.40;99.90
45535;DHT22;35892;48.798;9.698;2022-12-29T01:36:39;4.40;99.90
45535;DHT22;35892;48.798;9.698;2022-12-29T01:39:08;4.40;99.90
45535;DHT22;35892;48.798;9.698;2022-12-29T01:41:38;4.40;99.90
45535;DHT22;35892;48.798;9.698;2022-12-29T01:47:30;4.50;99.90
45535;DHT22;35892;48.798;9.698;2022-12-29T01:50:09;4.50;99.90
45535;DHT22;35892;48.798;9.698;2022-12-29T01:52:41;4.50;99.90
45535;DHT22;35892;48.798;9.698;2022-12-29T01:55:09;4.50;99.90
45535;DHT22;35892;48.798;9.698;2022-12-29T01:57:42;4.50;99.90
45535;DHT22;35892;48.798;9.698;2022-12-29T02:00:12;4.50;99.90
45535;DHT22;35892;48.798;9.698;2022-12-29T02:02:44;4.50;99.90
45535;DHT22;35892;48.798;9.698;2022-12-29T02:08:16;4.60;99.90
45535;DHT22;35892;48.798;9.698;2022-12-29T02:10:46;4.60;99.90
45535;DHT22;35892;48.798;9.698;2022-12-29T02:13:17;4.60;99.90
45535;DHT22;35892;48.798;9.698;2022-12-29T02:23:30;4.70;99.90
45535;DHT22;35892;48.798;9.698;2022-12-29T02:31:36;4.80;99.90
45535;DHT22;35892;48.798;9.698;2022-12-29T02:37:03;4.80;99.90
45535;DHT22;35892;48.798;9.698;2022-12-29T02:42:33;4.90;99.90
45535;DHT22;35892;48.798;9.698;2022-12-29T02:47:48;4.90;99.90
45535;DHT22;35892;48.798;9.698;2022-12-29T02:53:02;4.90;99.90
45535;DHT22;35892;48.798;9.698;2022-12-29T02:55:31;4.90;99.90
45535;DHT22;35892;48.798;9.698;2022-12-29T02:58:20;4.90;99.90
45535;DHT22;35892;48.798;9.698;2022-12-29T03:12:05;4.90;99.90
45535;DHT22;35892;48.798;9.698;2022-12-29T03:18:04;5.00;99.90
45535;DHT22;35892;48.798;9.698;2022-12-29T03:20:54;5.00;99.90
45535;DHT22;35892;48.798;9.698;2022-12-29T03:23:23;5.10;99.90
45535;DHT22;35892;48.798;9.698;2022-12-29T03:25:56;5.10;99.90
45535;DHT22;35892;48.798;9.698;2022-12-29T03:28:29;5.20;99.90
45535;DHT22;35892;48.798;9.698;2022-12-29T03:30:59;5.20;99.90
45535;DHT22;35892;48.798;9.698;2022-12-29T03:33:29;5.20;99.90
45535;DHT22;35892;48.798;9.698;2022-12-29T03:36:01;5.30;99.90
45535;DHT22;35892;48.798;9.698;2022-12-29T03:38:43;5.20;99.90
45535;DHT22;35892;48.798;9.698;2022-12-29T03:41:16;5.30;99.90
45535;DHT22;35892;48.798;9.698;2022-12-29T03:43:46;5.30;99.90
45535;DHT22;35892;48.798;9.698;2022-12-29T03:46:13;5.30;99.90
45535;DHT22;35892;48.798;9.698;2022-12-29T03:48:40;5.40;99.90
45535;DHT22;35892;48.798;9.698;2022-12-29T03:51:07;5.40;99.90
45535;DHT22;35892;48.798;9.698;2022-12-29T03:53:36;5.40;99.90
45535;DHT22;35892;48.798;9.698;2022-12-29T03:56:03;5.40;99.90
45535;DHT22;35892;48.798;9.698;2022-12-29T03:58:30;5.40;99.90
45535;DHT22;35892;48.798;9.698;2022-12-29T04:00:56;5.50;99.90
45535;DHT22;35892;48.798;9.698;2022-12-29T04:03:23;5.50;99.90
45535;DHT22;35892;48.798;9.698;2022-12-29T04:05:50;5.50;99.90
45535;DHT22;35892;48.798;9.698;2022-12-29T04:08:17;5.60;99.90
45535;DHT22;35892;48.798;9.698;2022-12-29T04:10:48;5.60;99.90
45535;DHT22;35892;48.798;9.698;2022-12-29T04:13:15;5.70;99.90
45535;DHT22;35892;48.798;9.698;2022-12-29T04:15:44;5.80;99.90
45535;DHT22;35892;48.798;9.698;2022-12-29T04:18:12;5.80;99.90
45535;DHT22;35892;48.798;9.698;2022-12-29T04:20:39;5.80;99.90
45535;DHT22;35892;48.798;9.698;2022-12-29T04:23:24;5.90;99.90
45535;DHT22;35892;48.798;9.698;2022-12-29T04:25:56;5.90;99.90
45535;DHT22;35892;48.798;9.698;2022-12-29T04:28:25;5.90;99.90
45535;DHT22;35892;48.798;9.698;2022-12-29T04:30:53;6.00;99.90
45535;DHT22;35892;48.798;9.698;2022-12-29T04:33:22;6.00;99.90
45535;DHT22;35892;48.798;9.698;2022-12-29T04:35:49;5.90;99.90
45535;DHT22;35892;48.798;9.698;2022-12-29T04:38:16;5.80;99.90
45535;DHT22;35892;48.798;9.698;2022-12-29T04:40:44;5.80;99.90
45535;DHT22;35892;48.798;9.698;2022-12-29T04:43:16;5.70;99.90
45535;DHT22;35892;48.798;9.698;2022-12-29T04:45:47;5.70;99.90
45535;DHT22;35892;48.798;9.698;2022-12-29T04:48:16;5.70;99.90
45535;DHT22;35892;48.798;9.698;2022-12-29T04:50:46;5.80;99.90
45535;DHT22;35892;48.798;9.698;2022-12-29T04:53:13;5.70;99.90
45535;DHT22;35892;48.798;9.698;2022-12-29T04:55:42;5.70;99.90
45535;DHT22;35892;48.798;9.698;2022-12-29T04:58:09;5.80;99.90
45535;DHT22;35892;48.798;9.698;2022-12-29T05:00:46;5.80;99.90
45535;DHT22;35892;48.798;9.698;2022-12-29T05:03:15;5.80;99.90
45535;DHT22;35892;48.798;9.698;2022-12-29T05:05:43;5.80;99.90
45535;DHT22;35892;48.798;9.698;2022-12-29T05:08:10;5.80;99.90
45535;DHT22;35892;48.798;9.698;2022-12-29T05:10:37;5.80;99.90
45535;DHT22;35892;48.798;9.698;2022-12-29T05:13:04;5.70;99.90
45535;DHT22;35892;48.798;9.698;2022-12-29T05:15:31;5.60;99.90
45535;DHT22;35892;48.798;9.698;2022-12-29T05:18:03;5.50;99.90
45535;DHT22;35892;48.798;9.698;2022-12-29T05:20:30;5.40;99.90
45535;DHT22;35892;48.798;9.698;2022-12-29T05:22:59;5.30;99.90
45535;DHT22;35892;48.798;9.698;2022-12-29T05:25:26;5.30;99.90
45535;DHT22;35892;48.798;9.698;2022-12-29T05:27:52;5.30;99.90
45535;DHT22;35892;48.798;9.698;2022-12-29T05:30:19;5.30;99.90
45535;DHT22;35892;48.798;9.698;2022-12-29T05:32:48;5.20;99.90
45535;DHT22;35892;48.798;9.698;2022-12-29T05:35:15;5.30;99.90
45535;DHT22;35892;48.798;9.698;2022-12-29T05:37:42;5.40;99.90
45535;DHT22;35892;48.798;9.698;2022-12-29T05:40:14;5.40;99.90
45535;DHT22;35892;48.798;9.698;2022-12-29T05:42:43;5.40;99.90
45535;DHT22;35892;48.798;9.698;2022-12-29T05:45:10;5.40;99.90
45535;DHT22;35892;48.798;9.698;2022-12-29T05:47:36;5.40;99.90
45535;DHT22;35892;48.798;9.698;2022-12-29T05:50:03;5.40;99.90
45535;DHT22;35892;48.798;9.698;2022-12-29T05:54:57;5.40;99.90
45535;DHT22;35892;48.798;9.698;2022-12-29T05:57:26;5.30;99.90
45535;DHT22;35892;48.798;9.698;2022-12-29T05:59:53;5.20;99.90
45535;DHT22;35892;48.798;9.698;2022-12-29T06:02:20;5.20;99.90
45535;DHT22;35892;48.798;9.698;2022-12-29T06:04:49;5.20;99.90
45535;DHT22;35892;48.798;9.698;2022-12-29T06:07:18;5.20;99.90
45535;DHT22;35892;48.798;9.698;2022-12-29T06:09:47;5.30;99.90
45535;DHT22;35892;48.798;9.698;2022-12-29T06:12:14;5.20;99.90
45535;DHT22;35892;48.798;9.698;2022-12-29T06:14:43;5.10;99.90
45535;DHT22;35892;48.798;9.698;2022-12-29T06:17:09;5.10;99.90
45535;DHT22;35892;48.798;9.698;2022-12-29T06:19:36;5.10;99.90
45535;DHT22;35892;48.798;9.698;2022-12-29T06:22:03;5.10;99.90
45535;DHT22;35892;48.798;9.698;2022-12-29T06:24:33;5.00;99.90
45535;DHT22;35892;48.798;9.698;2022-12-29T06:27:00;5.10;99.90
45535;DHT22;35892;48.798;9.698;2022-12-29T06:29:27;5.10;99.90
45535;DHT22;35892;48.798;9.698;2022-12-29T06:31:54;5.10;99.90
45535;DHT22;35892;48.798;9.698;2022-12-29T06:34:25;5.20;99.90
45535;DHT22;35892;48.798;9.698;2022-12-29T06:36:56;5.00;99.90
45535;DHT22;35892;48.798;9.698;2022-12-29T06:39:22;5.00;99.90
45535;DHT22;35892;48.798;9.698;2022-12-29T06:41:54;5.10;99.90
45535;DHT22;35892;48.798;9.698;2022-12-29T06:44:21;5.10;99.90
45535;DHT22;35892;48.798;9.698;2022-12-29T06:46:50;5.10;99.90
45535;DHT22;35892;48.798;9.698;2022-12-29T06:49:20;5.00;99.90
45535;DHT22;35892;48.798;9.698;2022-12-29T06:51:49;5.00;99.90
45535;DHT22;35892;48.798;9.698;2022-12-29T06:54:15;4.90;99.90
45535;DHT22;35892;48.798;9.698;2022-12-29T06:56:45;4.80;99.90
45535;DHT22;35892;48.798;9.698;2022-12-29T06:59:12;4.70;99.90
45535;DHT22;35892;48.798;9.698;2022-12-29T07:01:38;4.70;99.90
45535;DHT22;35892;48.798;9.698;2022-12-29T07:04:05;4.70;99.90
45535;DHT22;35892;48.798;9.698;2022-12-29T07:06:32;4.70;99.90
45535;DHT22;35892;48.798;9.698;2022-12-29T07:09:01;4.80;99.90
45535;DHT22;35892;48.798;9.698;2022-12-29T07:11:30;4.70;99.90
45535;DHT22;35892;48.798;9.698;2022-12-29T07:14:00;4.70;99.90
45535;DHT22;35892;48.798;9.698;2022-12-29T07:16:27;4.60;99.90
45535;DHT22;35892;48.798;9.698;2022-12-29T07:18:57;4.60;99.90
45535;DHT22;35892;48.798;9.698;2022-12-29T07:21:26;4.60;99.90
45535;DHT22;35892;48.798;9.698;2022-12-29T07:23:54;4.50;99.90
45535;DHT22;35892;48.798;9.698;2022-12-29T07:26:21;4.50;99.90
45535;DHT22;35892;48.798;9.698;2022-12-29T07:28:50;4.60;99.90
45535;DHT22;35892;48.798;9.698;2022-12-29T07:31:19;4.60;99.90
45535;DHT22;35892;48.798;9.698;2022-12-29T07:33:51;4.70;99.90
45535;DHT22;35892;48.798;9.698;2022-12-29T07:36:18;4.70;99.90
45535;DHT22;35892;48.798;9.698;2022-12-29T07:38:47;4.70;99.90
45535;DHT22;35892;48.798;9.698;2022-12-29T07:41:16;4.70;99.90
45535;DHT22;35892;48.798;9.698;2022-12-29T07:43:46;4.70;99.90
45535;DHT22;35892;48.798;9.698;2022-12-29T07:46:14;4.60;99.90
45535;DHT22;35892;48.798;9.698;2022-12-29T07:49:00;4.60;99.90
45535;DHT22;35892;48.798;9.698;2022-12-29T07:51:29;4.60;99.90
45535;DHT22;35892;48.798;9.698;2022-12-29T07:53:59;4.50;99.90
45535;DHT22;35892;48.798;9.698;2022-12-29T07:56:29;4.50;99.90
45535;DHT22;35892;48.798;9.698;2022-12-29T07:58:56;4.60;99.90
45535;DHT22;35892;48.798;9.698;2022-12-29T08:01:23;4.60;99.90
45535;DHT22;35892;48.798;9.698;2022-12-29T08:03:50;4.70;99.90
45535;DHT22;35892;48.798;9.698;2022-12-29T08:06:25;4.70;99.90
45535;DHT22;35892;48.798;9.698;2022-12-29T08:08:52;4.80;99.90
45535;DHT22;35892;48.798;9.698;2022-12-29T08:11:21;4.90;99.90
45535;DHT22;35892;48.798;9.698;2022-12-29T08:13:50;5.00;99.90
45535;DHT22;35892;48.798;9.698;2022-12-29T08:16:17;5.10;99.90
45535;DHT22;35892;48.798;9.698;2022-12-29T08:18:43;5.20;99.90
45535;DHT22;35892;48.798;9.698;2022-12-29T08:21:13;5.30;99.90
45535;DHT22;35892;48.798;9.698;2022-12-29T08:23:39;5.50;99.90
45535;DHT22;35892;48.798;9.698;2022-12-29T08:26:06;5.50;99.90
45535;DHT22;35892;48.798;9.698;2022-12-29T08:28:35;5.60;99.90
45535;DHT22;35892;48.798;9.698;2022-12-29T08:31:02;5.70;99.90
45535;DHT22;35892;48.798;9.698;2022-12-29T08:33:32;5.90;99.90
45535;DHT22;35892;48.798;9.698;2022-12-29T08:36:06;6.00;99.90
45535;DHT22;35892;48.798;9.698;2022-12-29T08:38:33;6.20;99.90
45535;DHT22;35892;48.798;9.698;2022-12-29T08:41:02;6.20;99.90
45535;DHT22;35892;48.798;9.698;2022-12-29T08:43:31;6.30;99.90
45535;DHT22;35892;48.798;9.698;2022-12-29T08:45:58;6.30;99.90
45535;DHT22;35892;48.798;9.698;2022-12-29T08:48:28;6.30;99.90
45535;DHT22;35892;48.798;9.698;2022-12-29T08:50:55;6.40;99.90
45535;DHT22;35892;48.798;9.698;2022-12-29T08:53:22;6.50;99.90
45535;DHT22;35892;48.798;9.698;2022-12-29T08:56:01;6.60;99.90
45535;DHT22;35892;48.798;9.698;2022-12-29T08:58:31;6.60;99.90
45535;DHT22;35892;48.798;9.698;2022-12-29T09:00:59;6.70;99.90
45535;DHT22;35892;48.798;9.698;2022-12-29T09:03:26;6.80;99.90
45535;DHT22;35892;48.798;9.698;2022-12-29T09:06:14;6.80;99.90
45535;DHT22;35892;48.798;9.698;2022-12-29T09:08:42;6.90;99.90
45535;DHT22;35892;48.798;9.698;2022-12-29T09:11:14;7.00;99.90
45535;DHT22;35892;48.798;9.698;2022-12-29T09:13:47;7.10;99.90
45535;DHT22;35892;48.798;9.698;2022-12-29T09:16:16;7.30;99.90
45535;DHT22;35892;48.798;9.698;2022-12-29T09:18:44;7.40;99.90
45535;DHT22;35892;48.798;9.698;2022-12-29T09:21:14;7.50;99.90
45535;DHT22;35892;48.798;9.698;2022-12-29T09:23:40;7.60;99.90
45535;DHT22;35892;48.798;9.698;2022-12-29T09:26:10;7.80;99.90
45535;DHT22;35892;48.798;9.698;2022-12-29T09:28:39;8.40;99.90
45535;DHT22;35892;48.798;9.698;2022-12-29T09:31:06;8.70;99.90
45535;DHT22;35892;48.798;9.698;2022-12-29T09:33:33;9.00;99.90
45535;DHT22;35892;48.798;9.698;2022-12-29T09:36:05;9.30;99.90
45535;DHT22;35892;48.798;9.698;2022-12-29T09:38:35;9.60;99.90
45535;DHT22;35892;48.798;9.698;2022-12-29T09:41:29;9.70;99.90
45535;DHT22;35892;48.798;9.698;2022-12-29T09:46:50;10.00;99.90
45535;DHT22;35892;48.798;9.698;2022-12-29T09:52:15;10.00;99.90
45535;DHT22;35892;48.798;9.698;2022-12-29T10:00:58;10.40;99.90
45535;DHT22;35892;48.798;9.698;2022-12-29T10:06:25;10.60;99.90
45535;DHT22;35892;48.798;9.698;2022-12-29T10:19:46;11.00;99.90
45535;DHT22;35892;48.798;9.698;2022-12-29T10:25:06;11.40;99.90
45535;DHT22;35892;48.798;9.698;2022-12-29T10:27:37;11.50;99.90
45535;DHT22;35892;48.798;9.698;2022-12-29T10:30:04;11.50;99.90
45535;DHT22;35892;48.798;9.698;2022-12-29T10:32:44;11.40;99.90
45535;DHT22;35892;48.798;9.698;2022-12-29T10:35:18;11.30;99.90
45535;DHT22;35892;48.798;9.698;2022-12-29T10:37:58;11.20;99.90
45535;DHT22;35892;48.798;9.698;2022-12-29T10:40:48;11.10;99.90
45535;DHT22;35892;48.798;9.698;2022-12-29T10:43:28;11.10;99.90
45535;DHT22;35892;48.798;9.698;2022-12-29T10:46:04;11.10;99.90
45535;DHT22;35892;48.798;9.698;2022-12-29T10:48:33;11.20;99.90
45535;DHT22;35892;48.798;9.698;2022-12-29T10:51:08;11.40;99.90
45535;DHT22;35892;48.798;9.698;2022-12-29T10:53:42;11.50;99.90
45535;DHT22;35892;48.798;9.698;2022-12-29T10:56:39;11.70;99.90
45535;DHT22;35892;48.798;9.698;2022-12-29T10:59:23;11.90;99.90
45535;DHT22;35892;48.798;9.698;2022-12-29T11:07:19;12.00;99.90
45535;DHT22;35892;48.798;9.698;2022-12-29T11:09:53;11.90;99.90
45535;DHT22;35892;48.798;9.698;2022-12-29T11:12:29;11.90;99.90
45535;DHT22;35892;48.798;9.698;2022-12-29T11:15:15;12.00;99.90
45535;DHT22;35892;48.798;9.698;2022-12-29T11:17:57;12.00;99.90
45535;DHT22;35892;48.798;9.698;2022-12-29T11:20:41;12.00;99.90
45535;DHT22;35892;48.798;9.698;2022-12-29T11:26:24;12.00;99.90
45535;DHT22;35892;48.798;9.698;2022-12-29T11:31:47;12.10;99.90
45535;DHT22;35892;48.798;9.698;2022-12-29T11:34:35;12.20;99.90
45535;DHT22;35892;48.798;9.698;2022-12-29T11:37:10;12.50;99.90
45535;DHT22;35892;48.798;9.698;2022-12-29T11:39:42;12.70;99.90
45535;DHT22;35892;48.798;9.698;2022-12-29T11:42:16;12.80;99.90
45535;DHT22;35892;48.798;9.698;2022-12-29T11:44:46;12.90;99.90
45535;DHT22;35892;48.798;9.698;2022-12-29T11:47:29;12.90;99.90
45535;DHT22;35892;48.798;9.698;2022-12-29T11:50:05;12.90;99.90
45535;DHT22;35892;48.798;9.698;2022-12-29T11:52:37;12.90;99.90
45535;DHT22;35892;48.798;9.698;2022-12-29T11:55:20;13.00;99.90
45535;DHT22;35892;48.798;9.698;2022-12-29T11:57:52;13.00;99.90
45535;DHT22;35892;48.798;9.698;2022-12-29T12:00:21;13.00;99.90
45535;DHT22;35892;48.798;9.698;2022-12-29T12:05:35;13.00;99.90
45535;DHT22;35892;48.798;9.698;2022-12-29T12:11:03;12.90;99.90
45535;DHT22;35892;48.798;9.698;2022-12-29T12:16:19;12.90;99.90
45535;DHT22;35892;48.798;9.698;2022-12-29T12:18:50;12.90;99.90
45535;DHT22;35892;48.798;9.698;2022-12-29T12:29:56;12.90;99.90
45535;DHT22;35892;48.798;9.698;2022-12-29T12:35:32;12.80;99.90
45535;DHT22;35892;48.798;9.698;2022-12-29T12:41:01;12.70;99.90
45535;DHT22;35892;48.798;9.698;2022-12-29T12:44:00;12.70;99.90
45535;DHT22;35892;48.798;9.698;2022-12-29T12:57:13;12.70;99.90
45535;DHT22;35892;48.798;9.698;2022-12-29T12:59:56;12.60;99.90
45535;DHT22;35892;48.798;9.698;2022-12-29T13:24:45;12.50;99.90
45535;DHT22;35892;48.798;9.698;2022-12-29T13:30:19;12.50;99.90
45535;DHT22;35892;48.798;9.698;2022-12-29T13:35:55;12.50;99.90
45535;DHT22;35892;48.798;9.698;2022-12-29T13:40:59;12.50;99.90
45535;DHT22;35892;48.798;9.698;2022-12-29T13:43:34;12.50;99.90
45535;DHT22;35892;48.798;9.698;2022-12-29T13:46:27;12.50;99.90
45535;DHT22;35892;48.798;9.698;2022-12-29T13:48:56;12.40;99.90
45535;DHT22;35892;48.798;9.698;2022-12-29T13:51:27;12.40;99.90
45535;DHT22;35892;48.798;9.698;2022-12-29T13:59:08;12.30;99.90
45535;DHT22;35892;48.798;9.698;2022-12-29T14:02:30;12.40;99.90
45535;DHT22;35892;48.798;9.698;2022-12-29T14:04:55;12.40;99.90
45535;DHT22;35892;48.798;9.698;2022-12-29T14:07:22;12.40;99.90
45535;DHT22;35892;48.798;9.698;2022-12-29T14:09:55;12.40;99.90
45535;DHT22;35892;48.798;9.698;2022-12-29T14:15:14;12.30;99.90
45535;DHT22;35892;48.798;9.698;2022-12-29T14:23:46;12.20;99.90
45535;DHT22;35892;48.798;9.698;2022-12-29T14:29:41;12.20;99.90
45535;DHT22;35892;48.798;9.698;2022-12-29T14:34:54;12.40;99.90
45535;DHT22;35892;48.798;9.698;2022-12-29T14:42:55;12.50;99.90
45535;DHT22;35892;48.798;9.698;2022-12-29T14:45:28;12.50;99.90
45535;DHT22;35892;48.798;9.698;2022-12-29T14:47:56;12.50;99.90
45535;DHT22;35892;48.798;9.698;2022-12-29T14:50:42;12.40;99.90
45535;DHT22;35892;48.798;9.698;2022-12-29T14:56:11;12.40;99.90
45535;DHT22;35892;48.798;9.698;2022-12-29T15:03:49;12.20;99.90
45535;DHT22;35892;48.798;9.698;2022-12-29T15:06:17;12.20;99.90
45535;DHT22;35892;48.798;9.698;2022-12-29T15:09:09;12.20;99.90
45535;DHT22;35892;48.798;9.698;2022-12-29T15:14:50;12.10;99.90
45535;DHT22;35892;48.798;9.698;2022-12-29T15:17:33;12.10;99.90
45535;DHT22;35892;48.798;9.698;2022-12-29T15:20:35;12.00;99.90
45535;DHT22;35892;48.798;9.698;2022-12-29T15:23:09;12.10;99.90
45535;DHT22;35892;48.798;9.698;2022-12-29T15:25:59;12.00;99.90
45535;DHT22;35892;48.798;9.698;2022-12-29T15:28:30;11.90;99.90
45535;DHT22;35892;48.798;9.698;2022-12-29T15:31:10;11.80;99.90
45535;DHT22;35892;48.798;9.698;2022-12-29T15:33:41;11.70;99.90
45535;DHT22;35892;48.798;9.698;2022-12-29T15:36:22;11.60;99.90
45535;DHT22;35892;48.798;9.698;2022-12-29T15:38:52;11.60;99.90
45535;DHT22;35892;48.798;9.698;2022-12-29T15:44:18;11.30;99.90
45535;DHT22;35892;48.798;9.698;2022-12-29T15:46:47;11.00;99.90
45535;DHT22;35892;48.798;9.698;2022-12-29T15:49:14;10.80;99.90
45535;DHT22;35892;48.798;9.698;2022-12-29T15:51:41;10.70;99.90
45535;DHT22;35892;48.798;9.698;2022-12-29T15:54:21;10.60;99.90
45535;DHT22;35892;48.798;9.698;2022-12-29T15:56:50;10.60;99.90
45535;DHT22;35892;48.798;9.698;2022-12-29T15:59:32;10.80;99.90
45535;DHT22;35892;48.798;9.698;2022-12-29T16:02:09;10.90;99.90
45535;DHT22;35892;48.798;9.698;2022-12-29T16:04:39;10.90;99.90
45535;DHT22;35892;48.798;9.698;2022-12-29T16:07:33;11.00;99.90
45535;DHT22;35892;48.798;9.698;2022-12-29T16:10:28;11.10;99.90
45535;DHT22;35892;48.798;9.698;2022-12-29T16:13:10;11.10;99.90
45535;DHT22;35892;48.798;9.698;2022-12-29T16:15:40;11.20;99.90
45535;DHT22;35892;48.798;9.698;2022-12-29T16:18:23;11.20;99.90
45535;DHT22;35892;48.798;9.698;2022-12-29T16:20:52;11.20;99.90
45535;DHT22;35892;48.798;9.698;2022-12-29T16:23:24;11.10;99.90
45535;DHT22;35892;48.798;9.698;2022-12-29T16:25:56;11.20;99.90
45535;DHT22;35892;48.798;9.698;2022-12-29T16:31:24;11.40;99.90
45535;DHT22;35892;48.798;9.698;2022-12-29T16:33:55;11.40;99.90
45535;DHT22;35892;48.798;9.698;2022-12-29T16:36:23;11.50;99.90
45535;DHT22;35892;48.798;9.698;2022-12-29T16:38:49;11.60;99.90
45535;DHT22;35892;48.798;9.698;2022-12-29T16:41:31;11.50;99.90
45535;DHT22;35892;48.798;9.698;2022-12-29T16:44:18;11.40;99.90
45535;DHT22;35892;48.798;9.698;2022-12-29T16:50:30;11.20;99.90
45535;DHT22;35892;48.798;9.698;2022-12-29T16:52:58;11.20;99.90
45535;DHT22;35892;48.798;9.698;2022-12-29T16:55:54;11.10;99.90
45535;DHT22;35892;48.798;9.698;2022-12-29T16:58:40;11.00;99.90
45535;DHT22;35892;48.798;9.698;2022-12-29T17:01:23;10.90;99.90
45535;DHT22;35892;48.798;9.698;2022-12-29T17:04:05;10.70;99.90
45535;DHT22;35892;48.798;9.698;2022-12-29T17:06:42;10.70;99.90
45535;DHT22;35892;48.798;9.698;2022-12-29T17:11:48;10.60;99.90
45535;DHT22;35892;48.798;9.698;2022-12-29T17:17:05;10.50;99.90
45535;DHT22;35892;48.798;9.698;2022-12-29T17:19:37;10.50;99.90
45535;DHT22;35892;48.798;9.698;2022-12-29T17:22:17;10.50;99.90
45535;DHT22;35892;48.798;9.698;2022-12-29T17:24:44;10.40;99.90
45535;DHT22;35892;48.798;9.698;2022-12-29T17:27:35;10.40;99.90
45535;DHT22;35892;48.798;9.698;2022-12-29T17:30:10;10.30;99.90
45535;DHT22;35892;48.798;9.698;2022-12-29T17:32:39;10.30;99.90
45535;DHT22;35892;48.798;9.698;2022-12-29T17:35:18;10.20;99.90
45535;DHT22;35892;48.798;9.698;2022-12-29T17:37:46;10.20;99.90
45535;DHT22;35892;48.798;9.698;2022-12-29T17:40:17;10.10;99.90
45535;DHT22;35892;48.798;9.698;2022-12-29T17:42:48;10.10;99.90
45535;DHT22;35892;48.798;9.698;2022-12-29T17:45:24;10.10;99.90
45535;DHT22;35892;48.798;9.698;2022-12-29T17:47:52;10.10;99.90
45535;DHT22;35892;48.798;9.698;2022-12-29T17:50:24;10.10;99.90
45535;DHT22;35892;48.798;9.698;2022-12-29T17:52:53;10.10;99.90
45535;DHT22;35892;48.798;9.698;2022-12-29T17:55:27;10.00;99.90
45535;DHT22;35892;48.798;9.698;2022-12-29T18:00:49;9.80;99.90
45535;DHT22;35892;48.798;9.698;2022-12-29T18:03:18;9.80;99.90
45535;DHT22;35892;48.798;9.698;2022-12-29T18:05:47;9.80;99.90
45535;DHT22;35892;48.798;9.698;2022-12-29T18:08:15;9.80;99.90
45535;DHT22;35892;48.798;9.698;2022-12-29T18:10:42;9.90;99.90
45535;DHT22;35892;48.798;9.698;2022-12-29T18:13:19;9.90;99.90
45535;DHT22;35892;48.798;9.698;2022-12-29T18:15:47;9.90;99.90
45535;DHT22;35892;48.798;9.698;2022-12-29T18:18:19;9.80;99.90
45535;DHT22;35892;48.798;9.698;2022-12-29T18:20:47;9.80;99.90
45535;DHT22;35892;48.798;9.698;2022-12-29T18:23:29;9.80;99.90
45535;DHT22;35892;48.798;9.698;2022-12-29T18:28:37;9.80;99.90
45535;DHT22;35892;48.798;9.698;2022-12-29T18:31:14;9.80;99.90
45535;DHT22;35892;48.798;9.698;2022-12-29T18:33:44;9.80;99.90
45535;DHT22;35892;48.798;9.698;2022-12-29T18:36:12;9.70;99.90
45535;DHT22;35892;48.798;9.698;2022-12-29T18:38:41;9.70;99.90
45535;DHT22;35892;48.798;9.698;2022-12-29T18:41:14;9.60;99.90
45535;DHT22;35892;48.798;9.698;2022-12-29T18:43:44;9.60;99.90
45535;DHT22;35892;48.798;9.698;2022-12-29T18:46:14;9.70;99.90
45535;DHT22;35892;48.798;9.698;2022-12-29T18:48:48;9.60;99.90
45535;DHT22;35892;48.798;9.698;2022-12-29T18:51:17;9.60;99.90
45535;DHT22;35892;48.798;9.698;2022-12-29T18:53:45;9.70;99.90
45535;DHT22;35892;48.798;9.698;2022-12-29T18:56:14;9.80;99.90
45535;DHT22;35892;48.798;9.698;2022-12-29T18:58:43;9.70;99.90
45535;DHT22;35892;48.798;9.698;2022-12-29T19:01:22;9.70;99.90
45535;DHT22;35892;48.798;9.698;2022-12-29T19:03:50;9.60;99.90
45535;DHT22;35892;48.798;9.698;2022-12-29T19:06:18;9.60;99.90
45535;DHT22;35892;48.798;9.698;2022-12-29T19:08:45;9.60;99.90
45535;DHT22;35892;48.798;9.698;2022-12-29T19:11:14;9.60;99.90
45535;DHT22;35892;48.798;9.698;2022-12-29T19:13:41;9.70;99.90
45535;DHT22;35892;48.798;9.698;2022-12-29T19:16:18;9.80;99.90
45535;DHT22;35892;48.798;9.698;2022-12-29T19:18:46;9.90;99.90
45535;DHT22;35892;48.798;9.698;2022-12-29T19:21:33;9.80;99.90
45535;DHT22;35892;48.798;9.698;2022-12-29T19:24:04;9.80;99.90
45535;DHT22;35892;48.798;9.698;2022-12-29T19:26:36;9.60;99.90
45535;DHT22;35892;48.798;9.698;2022-12-29T19:29:05;9.50;99.90
45535;DHT22;35892;48.798;9.698;2022-12-29T19:31:33;9.50;99.90
45535;DHT22;35892;48.798;9.698;2022-12-29T19:34:06;9.50;99.90
45535;DHT22;35892;48.798;9.698;2022-12-29T19:36:35;9.50;99.90
45535;DHT22;35892;48.798;9.698;2022-12-29T19:39:05;9.50;99.90
45535;DHT22;35892;48.798;9.698;2022-12-29T19:41:32;9.40;99.90
45535;DHT22;35892;48.798;9.698;2022-12-29T19:44:01;9.40;99.90